Flight Track Log - Related Links

Times and Time Zones

All times are in EDT time to prevent confusion due to time zone crossing. See the N204RA flight status page for this flight to view local times or setup timezone preferences in your user account.

Time Position Orientation Groundspeed Altitude Reporting Facility
EDT Latitude Longitude Course Direction KTS MPH feet Rate Location/Type
Thu 03:27:07 PM 29.5497 -98.4367 51° Northeast 157 181 3,700  Level Houston Center
Thu 03:28:07 PM 29.5850 -98.4017 41° Northeast 159 183 6,200 2,379 Climbing Houston Center
Thu 03:29:03 PM 29.6292 -98.3886 14° North 190 219 8,300 2,419 Climbing Houston Center
Thu 03:29:09 PM 29.6383 -98.3856 16° North 184 212 8,700 2,700 Climbing Houston Center
Thu 03:30:03 PM 29.6853 -98.3819 North 189 217 11,000 2,419 Climbing Houston Center
Thu 03:30:11 PM 29.6897 -98.3811 North 186 214 11,200 1,714 Climbing Houston Center
Thu 03:31:13 PM 29.7497 -98.3800 North 201 231 13,000 871 Climbing Houston Center
Thu 03:32:15 PM 29.8211 -98.3778 North 254 292 13,000  Level Houston Center
Thu 03:33:18 PM 29.9033 -98.3756 North 271 312 13,000 336 Level Houston Center
Thu 03:34:20 PM 29.9789 -98.3742 North 273 314 13,700 1,452 Climbing Houston Center
Thu 03:35:22 PM 30.0478 -98.3728 North 230 265 16,000 1,935 Climbing Houston Center
Thu 03:36:24 PM 30.1061 -98.3525 17° North 225 259 17,700 1,500 Climbing Houston Center
Thu 03:37:26 PM 30.1572 -98.3081 37° Northeast 229 264 19,100 1,210 Climbing Houston Center
Thu 03:38:28 PM 30.2189 -98.2542 37° Northeast 255 293 20,200 1,008 Climbing Houston Center
Thu 03:39:31 PM 30.2789 -98.2025 37° Northeast 265 305 21,200 912 Climbing Houston Center
Thu 03:40:33 PM 30.3364 -98.1533 36° Northeast 266 306 22,100 871 Climbing Houston Center
Thu 03:41:35 PM 30.3972 -98.1006 37° Northeast 271 312 23,000 435 Climbing Houston Center
Thu 03:42:37 PM 30.4739 -98.0342 37° Northeast 290 334 23,000  Level Houston Center
Thu 03:43:39 PM 30.5425 -97.9744 37° Northeast 302 348 23,000  Level Houston Center
Thu 03:44:41 PM 30.6125 -97.9153 36° Northeast 306 352 23,000  Level Houston Center
Thu 03:45:44 PM 30.6817 -97.8547 37° Northeast 306 352 23,000  Level Houston Center
Thu 03:46:46 PM 30.7497 -97.7958 37° Northeast 306 352 23,000  Level Houston Center
Thu 03:47:48 PM 30.8183 -97.7358 37° Northeast 305 351 23,000  Level Houston Center
Thu 03:48:42 PM 30.8861 -97.6758 37° Northeast 305 351 23,000  Level Fort Worth Center
Thu 03:49:52 PM 30.9564 -97.6161 36° Northeast 305 351 23,000  Level Houston Center
Thu 03:50:55 PM 31.0375 -97.5436 37° Northeast 306 352 23,000  Level Houston Center
Thu 03:51:57 PM 31.1064 -97.4833 37° Northeast 306 352 23,000  Level Houston Center
Thu 03:52:50 PM 31.1558 -97.4392 37° Northeast 306 352 23,000  Level Fort Worth Center
Thu 03:54:01 PM 31.2450 -97.3619 37° Northeast 306 352 23,000  Level Houston Center
Thu 03:55:03 PM 31.3119 -97.3008 38° Northeast 302 348 23,000  Level Houston Center
Thu 03:56:05 PM 31.3803 -97.2403 37° Northeast 302 348 23,000  Level Houston Center
Thu 03:57:08 PM 31.4483 -97.1803 37° Northeast 302 348 23,000  Level Houston Center
Thu 03:58:10 PM 31.5167 -97.1192 37° Northeast 303 349 23,000  Level Houston Center
Thu 03:59:12 PM 31.5969 -97.0494 36° Northeast 304 350 23,000  Level Houston Center
Thu 04:00:14 PM 31.6647 -96.9881 38° Northeast 305 351 23,000  Level Houston Center
Thu 04:01:16 PM 31.7342 -96.9264 37° Northeast 306 352 23,000  Level Houston Center
Thu 04:02:18 PM 31.8022 -96.8658 37° Northeast 305 351 23,000  Level Houston Center
Thu 04:03:21 PM 31.8708 -96.8036 38° Northeast 307 353 23,000  Level Houston Center
Thu 04:04:13 PM 31.9283 -96.7519 37° Northeast 307 353 23,000  Level Fort Worth Center
Thu 04:05:15 PM 32.0061 -96.6825 37° Northeast 306 352 23,000  Level Fort Worth Center
Thu 04:06:17 PM 32.0733 -96.6211 38° Northeast 305 351 23,000 -336 Level Fort Worth Center
Thu 04:07:20 PM 32.1417 -96.5597 37° Northeast 307 353 22,300 -1,056 Descending Fort Worth Center
Thu 04:08:22 PM 32.2147 -96.4928 38° Northeast 326 375 20,800 -1,548 Descending Fort Worth Center
Thu 04:09:24 PM 32.2956 -96.4194 37° Northeast 329 379 19,100 -871 Descending Fort Worth Center
Thu 04:10:26 PM 32.3678 -96.3531 38° Northeast 311 358 19,000 -48 Descending Fort Worth Center
Thu 04:11:28 PM 32.4317 -96.2947 38° Northeast 292 336 19,000 -435 Level Fort Worth Center
Thu 04:12:30 PM 32.5000 -96.2336 37° Northeast 288 331 18,100 -1,016 Descending Fort Worth Center
Thu 04:13:32 PM 32.5686 -96.1694 38° Northeast 306 352 16,900 -1,355 Descending Fort Worth Center
Thu 04:14:34 PM 32.6439 -96.1011 37° Northeast 312 359 15,300 -1,488 Descending Fort Worth Center
Thu 04:15:37 PM 32.7108 -96.0394 38° Northeast 308 354 13,800 -1,488 Descending Fort Worth Center
Thu 04:16:39 PM 32.7811 -95.9750 38° Northeast 302 348 12,200 -1,597 Descending Fort Worth Center
Thu 04:17:41 PM 32.8456 -95.9150 38° Northeast 296 341 10,500 -1,645 Descending Fort Worth Center

Login

Don't have an account? Register now (free) for customized features, flight alerts, and more!